sensor_id;sensor_type;location;lat;lon;timestamp;temperature;humidity
21306;DHT22;10812;51.838;5.838;2023-02-05T00:02:09;7.10;99.90
21306;DHT22;10812;51.838;5.838;2023-02-05T00:04:37;7.10;99.90
21306;DHT22;10812;51.838;5.838;2023-02-05T00:07:06;7.10;99.90
21306;DHT22;10812;51.838;5.838;2023-02-05T00:09:35;7.10;99.90
21306;DHT22;10812;51.838;5.838;2023-02-05T00:12:07;7.10;99.90
21306;DHT22;10812;51.838;5.838;2023-02-05T00:14:35;7.10;99.90
21306;DHT22;10812;51.838;5.838;2023-02-05T00:17:03;7.10;99.90
21306;DHT22;10812;51.838;5.838;2023-02-05T00:19:31;7.10;99.90
21306;DHT22;10812;51.838;5.838;2023-02-05T00:21:59;7.10;99.90
21306;DHT22;10812;51.838;5.838;2023-02-05T00:24:27;7.10;99.90
21306;DHT22;10812;51.838;5.838;2023-02-05T00:26:57;7.10;99.90
21306;DHT22;10812;51.838;5.838;2023-02-05T00:29:25;7.20;99.90
21306;DHT22;10812;51.838;5.838;2023-02-05T00:31:53;7.10;99.90
21306;DHT22;10812;51.838;5.838;2023-02-05T00:34:21;7.20;99.90
21306;DHT22;10812;51.838;5.838;2023-02-05T00:36:49;7.20;99.90
21306;DHT22;10812;51.838;5.838;2023-02-05T00:39:17;7.30;99.90
21306;DHT22;10812;51.838;5.838;2023-02-05T00:41:45;7.30;99.90
21306;DHT22;10812;51.838;5.838;2023-02-05T00:44:15;7.30;99.90
21306;DHT22;10812;51.838;5.838;2023-02-05T00:46:43;7.40;99.90
21306;DHT22;10812;51.838;5.838;2023-02-05T00:49:11;7.40;99.90
21306;DHT22;10812;51.838;5.838;2023-02-05T00:51:39;7.40;99.90
21306;DHT22;10812;51.838;5.838;2023-02-05T00:54:07;7.50;99.90
21306;DHT22;10812;51.838;5.838;2023-02-05T00:56:36;7.50;99.90
21306;DHT22;10812;51.838;5.838;2023-02-05T00:59:04;7.40;99.90
21306;DHT22;10812;51.838;5.838;2023-02-05T01:01:33;7.50;99.90
21306;DHT22;10812;51.838;5.838;2023-02-05T01:04:01;7.50;99.90
21306;DHT22;10812;51.838;5.838;2023-02-05T01:06:29;7.50;99.90
21306;DHT22;10812;51.838;5.838;2023-02-05T01:08:58;7.40;99.90
21306;DHT22;10812;51.838;5.838;2023-02-05T01:11:26;7.50;99.90
21306;DHT22;10812;51.838;5.838;2023-02-05T01:13:54;7.50;99.90
21306;DHT22;10812;51.838;5.838;2023-02-05T01:16:22;7.60;99.90
21306;DHT22;10812;51.838;5.838;2023-02-05T01:18:52;7.60;99.90
21306;DHT22;10812;51.838;5.838;2023-02-05T01:21:22;7.50;99.90
21306;DHT22;10812;51.838;5.838;2023-02-05T01:23:51;7.50;99.90
21306;DHT22;10812;51.838;5.838;2023-02-05T01:26:20;7.50;99.90
21306;DHT22;10812;51.838;5.838;2023-02-05T01:28:49;7.50;99.90
21306;DHT22;10812;51.838;5.838;2023-02-05T01:31:17;7.50;99.90
21306;DHT22;10812;51.838;5.838;2023-02-05T01:33:46;7.50;99.90
21306;DHT22;10812;51.838;5.838;2023-02-05T01:36:16;7.50;99.90
21306;DHT22;10812;51.838;5.838;2023-02-05T01:38:44;7.50;99.90
21306;DHT22;10812;51.838;5.838;2023-02-05T01:41:12;7.50;99.90
21306;DHT22;10812;51.838;5.838;2023-02-05T01:43:40;7.50;99.90
21306;DHT22;10812;51.838;5.838;2023-02-05T01:46:23;7.50;99.90
21306;DHT22;10812;51.838;5.838;2023-02-05T02:04:31;7.50;99.90
21306;DHT22;10812;51.838;5.838;2023-02-05T02:07:01;7.50;99.90
21306;DHT22;10812;51.838;5.838;2023-02-05T02:09:30;7.50;99.90
21306;DHT22;10812;51.838;5.838;2023-02-05T02:11:58;7.60;99.90
21306;DHT22;10812;51.838;5.838;2023-02-05T02:14:30;7.50;99.90
21306;DHT22;10812;51.838;5.838;2023-02-05T02:17:01;7.50;99.90
21306;DHT22;10812;51.838;5.838;2023-02-05T02:19:38;7.40;99.90
21306;DHT22;10812;51.838;5.838;2023-02-05T02:22:36;7.50;99.90
21306;DHT22;10812;51.838;5.838;2023-02-05T02:25:21;7.50;99.90
21306;DHT22;10812;51.838;5.838;2023-02-05T02:27:56;7.50;99.90
21306;DHT22;10812;51.838;5.838;2023-02-05T02:30:29;7.50;99.90
21306;DHT22;10812;51.838;5.838;2023-02-05T02:33:05;7.60;99.90
21306;DHT22;10812;51.838;5.838;2023-02-05T02:35:42;7.60;99.90
21306;DHT22;10812;51.838;5.838;2023-02-05T02:38:17;7.60;99.90
21306;DHT22;10812;51.838;5.838;2023-02-05T02:40:49;7.60;99.90
21306;DHT22;10812;51.838;5.838;2023-02-05T02:43:22;7.60;99.90
21306;DHT22;10812;51.838;5.838;2023-02-05T02:45:55;7.50;99.90
21306;DHT22;10812;51.838;5.838;2023-02-05T02:48:26;7.50;99.90
21306;DHT22;10812;51.838;5.838;2023-02-05T02:50:57;7.60;99.90
21306;DHT22;10812;51.838;5.838;2023-02-05T02:53:29;7.50;99.90
21306;DHT22;10812;51.838;5.838;2023-02-05T02:56:00;7.50;99.90
21306;DHT22;10812;51.838;5.838;2023-02-05T02:58:34;7.40;99.90
21306;DHT22;10812;51.838;5.838;2023-02-05T03:06:24;7.40;99.90
21306;DHT22;10812;51.838;5.838;2023-02-05T03:08:56;7.40;99.90
21306;DHT22;10812;51.838;5.838;2023-02-05T03:11:26;7.30;99.90
21306;DHT22;10812;51.838;5.838;2023-02-05T03:13:56;7.30;99.90
21306;DHT22;10812;51.838;5.838;2023-02-05T03:16:25;7.30;99.90
21306;DHT22;10812;51.838;5.838;2023-02-05T03:18:54;7.30;99.90
21306;DHT22;10812;51.838;5.838;2023-02-05T03:21:26;7.30;99.90
21306;DHT22;10812;51.838;5.838;2023-02-05T03:23:55;7.20;99.90
21306;DHT22;10812;51.838;5.838;2023-02-05T03:26:25;7.20;99.90
21306;DHT22;10812;51.838;5.838;2023-02-05T03:28:55;7.20;99.90
21306;DHT22;10812;51.838;5.838;2023-02-05T03:31:30;7.20;99.90
21306;DHT22;10812;51.838;5.838;2023-02-05T03:34:09;7.20;99.90
21306;DHT22;10812;51.838;5.838;2023-02-05T03:36:47;7.20;99.90
21306;DHT22;10812;51.838;5.838;2023-02-05T03:39:26;7.20;99.90
21306;DHT22;10812;51.838;5.838;2023-02-05T03:42:05;7.20;99.90
21306;DHT22;10812;51.838;5.838;2023-02-05T03:44:51;7.10;99.90
21306;DHT22;10812;51.838;5.838;2023-02-05T03:47:33;7.10;99.90
21306;DHT22;10812;51.838;5.838;2023-02-05T03:50:10;7.10;99.90
21306;DHT22;10812;51.838;5.838;2023-02-05T03:52:42;7.10;99.90
21306;DHT22;10812;51.838;5.838;2023-02-05T03:55:14;7.10;99.90
21306;DHT22;10812;51.838;5.838;2023-02-05T03:57:49;7.00;99.90
21306;DHT22;10812;51.838;5.838;2023-02-05T04:00:21;7.00;99.90
21306;DHT22;10812;51.838;5.838;2023-02-05T04:02:49;7.00;99.90
21306;DHT22;10812;51.838;5.838;2023-02-05T04:05:17;7.10;99.90
21306;DHT22;10812;51.838;5.838;2023-02-05T04:07:48;7.10;99.90
21306;DHT22;10812;51.838;5.838;2023-02-05T04:10:17;7.00;99.90
21306;DHT22;10812;51.838;5.838;2023-02-05T04:12:46;7.10;99.90
21306;DHT22;10812;51.838;5.838;2023-02-05T04:15:14;7.00;99.90
21306;DHT22;10812;51.838;5.838;2023-02-05T04:17:43;7.00;99.90
21306;DHT22;10812;51.838;5.838;2023-02-05T04:20:11;7.00;99.90
21306;DHT22;10812;51.838;5.838;2023-02-05T04:22:40;7.00;99.90
21306;DHT22;10812;51.838;5.838;2023-02-05T04:25:08;7.00;99.90
21306;DHT22;10812;51.838;5.838;2023-02-05T04:27:36;7.00;99.90
21306;DHT22;10812;51.838;5.838;2023-02-05T04:30:05;7.00;99.90
21306;DHT22;10812;51.838;5.838;2023-02-05T04:32:33;7.10;99.90
21306;DHT22;10812;51.838;5.838;2023-02-05T04:35:03;7.10;99.90
21306;DHT22;10812;51.838;5.838;2023-02-05T04:37:31;7.20;99.90
21306;DHT22;10812;51.838;5.838;2023-02-05T04:39:59;7.20;99.90
21306;DHT22;10812;51.838;5.838;2023-02-05T04:42:27;7.20;99.90
21306;DHT22;10812;51.838;5.838;2023-02-05T04:44:55;7.20;99.90
21306;DHT22;10812;51.838;5.838;2023-02-05T04:47:23;7.10;99.90
21306;DHT22;10812;51.838;5.838;2023-02-05T04:49:52;7.20;99.90
21306;DHT22;10812;51.838;5.838;2023-02-05T04:52:21;7.10;99.90
21306;DHT22;10812;51.838;5.838;2023-02-05T04:54:49;7.10;99.90
21306;DHT22;10812;51.838;5.838;2023-02-05T04:57:17;7.10;99.90
21306;DHT22;10812;51.838;5.838;2023-02-05T04:59:45;7.10;99.90
21306;DHT22;10812;51.838;5.838;2023-02-05T05:02:13;7.10;99.90
21306;DHT22;10812;51.838;5.838;2023-02-05T05:04:42;7.10;99.90
21306;DHT22;10812;51.838;5.838;2023-02-05T05:07:10;7.10;99.90
21306;DHT22;10812;51.838;5.838;2023-02-05T05:09:39;7.10;99.90
21306;DHT22;10812;51.838;5.838;2023-02-05T05:12:08;7.10;99.90
21306;DHT22;10812;51.838;5.838;2023-02-05T05:14:36;7.10;99.90
21306;DHT22;10812;51.838;5.838;2023-02-05T05:17:04;7.10;99.90
21306;DHT22;10812;51.838;5.838;2023-02-05T05:19:32;7.10;99.90
21306;DHT22;10812;51.838;5.838;2023-02-05T05:22:00;7.00;99.90
21306;DHT22;10812;51.838;5.838;2023-02-05T05:24:28;7.00;99.90
21306;DHT22;10812;51.838;5.838;2023-02-05T05:26:58;7.00;99.90
21306;DHT22;10812;51.838;5.838;2023-02-05T05:29:26;7.00;99.90
21306;DHT22;10812;51.838;5.838;2023-02-05T05:31:54;7.00;99.90
21306;DHT22;10812;51.838;5.838;2023-02-05T05:34:22;6.90;99.90
21306;DHT22;10812;51.838;5.838;2023-02-05T05:36:51;6.90;99.90
21306;DHT22;10812;51.838;5.838;2023-02-05T05:39:19;7.00;99.90
21306;DHT22;10812;51.838;5.838;2023-02-05T05:42:06;7.00;99.90
21306;DHT22;10812;51.838;5.838;2023-02-05T05:44:52;7.00;99.90
21306;DHT22;10812;51.838;5.838;2023-02-05T05:47:20;7.00;99.90
21306;DHT22;10812;51.838;5.838;2023-02-05T05:49:48;7.00;99.90
21306;DHT22;10812;51.838;5.838;2023-02-05T05:52:16;7.00;99.90
21306;DHT22;10812;51.838;5.838;2023-02-05T05:54:44;7.00;99.90
21306;DHT22;10812;51.838;5.838;2023-02-05T05:57:14;6.90;99.90
21306;DHT22;10812;51.838;5.838;2023-02-05T05:59:42;6.90;99.90
21306;DHT22;10812;51.838;5.838;2023-02-05T06:02:10;6.90;99.90
21306;DHT22;10812;51.838;5.838;2023-02-05T06:04:38;6.90;99.90
21306;DHT22;10812;51.838;5.838;2023-02-05T06:07:06;6.90;99.90
21306;DHT22;10812;51.838;5.838;2023-02-05T06:09:34;6.90;99.90
21306;DHT22;10812;51.838;5.838;2023-02-05T06:12:02;6.90;99.90
21306;DHT22;10812;51.838;5.838;2023-02-05T06:14:32;6.90;99.90
21306;DHT22;10812;51.838;5.838;2023-02-05T06:17:00;6.90;99.90
21306;DHT22;10812;51.838;5.838;2023-02-05T06:19:28;6.90;99.90
21306;DHT22;10812;51.838;5.838;2023-02-05T06:21:57;6.90;99.90
21306;DHT22;10812;51.838;5.838;2023-02-05T06:24:25;6.90;99.90
21306;DHT22;10812;51.838;5.838;2023-02-05T06:26:56;6.90;99.90
21306;DHT22;10812;51.838;5.838;2023-02-05T06:29:24;6.90;99.90
21306;DHT22;10812;51.838;5.838;2023-02-05T06:31:54;6.90;99.90
21306;DHT22;10812;51.838;5.838;2023-02-05T06:34:22;6.90;99.90
21306;DHT22;10812;51.838;5.838;2023-02-05T06:36:52;6.90;99.90
21306;DHT22;10812;51.838;5.838;2023-02-05T06:39:21;6.90;99.90
21306;DHT22;10812;51.838;5.838;2023-02-05T06:41:51;6.90;99.90
21306;DHT22;10812;51.838;5.838;2023-02-05T06:44:19;6.80;99.90
21306;DHT22;10812;51.838;5.838;2023-02-05T06:46:47;6.70;99.90
21306;DHT22;10812;51.838;5.838;2023-02-05T06:49:16;6.70;99.90
21306;DHT22;10812;51.838;5.838;2023-02-05T06:51:44;6.60;99.90
21306;DHT22;10812;51.838;5.838;2023-02-05T06:54:13;6.50;99.90
21306;DHT22;10812;51.838;5.838;2023-02-05T06:56:41;6.50;99.90
21306;DHT22;10812;51.838;5.838;2023-02-05T06:59:09;6.40;99.90
21306;DHT22;10812;51.838;5.838;2023-02-05T07:01:37;6.30;99.90
21306;DHT22;10812;51.838;5.838;2023-02-05T07:04:06;6.30;99.90
21306;DHT22;10812;51.838;5.838;2023-02-05T07:06:35;6.30;99.90
21306;DHT22;10812;51.838;5.838;2023-02-05T07:09:04;6.30;99.90
21306;DHT22;10812;51.838;5.838;2023-02-05T07:11:32;6.20;99.90
21306;DHT22;10812;51.838;5.838;2023-02-05T07:14:00;6.30;99.90
21306;DHT22;10812;51.838;5.838;2023-02-05T07:24:01;6.20;99.90
21306;DHT22;10812;51.838;5.838;2023-02-05T07:26:30;6.10;99.90
21306;DHT22;10812;51.838;5.838;2023-02-05T07:28:58;6.10;99.90
21306;DHT22;10812;51.838;5.838;2023-02-05T07:31:26;6.00;99.90
21306;DHT22;10812;51.838;5.838;2023-02-05T07:33:54;6.00;99.90
21306;DHT22;10812;51.838;5.838;2023-02-05T07:36:22;6.00;99.90
21306;DHT22;10812;51.838;5.838;2023-02-05T07:38:50;6.00;99.90
21306;DHT22;10812;51.838;5.838;2023-02-05T07:41:20;6.00;99.90
21306;DHT22;10812;51.838;5.838;2023-02-05T07:43:49;6.10;99.90
21306;DHT22;10812;51.838;5.838;2023-02-05T07:46:19;6.10;99.90
21306;DHT22;10812;51.838;5.838;2023-02-05T07:48:48;6.20;99.90
21306;DHT22;10812;51.838;5.838;2023-02-05T07:51:18;6.20;99.90
21306;DHT22;10812;51.838;5.838;2023-02-05T07:53:46;6.20;99.90
21306;DHT22;10812;51.838;5.838;2023-02-05T07:56:15;6.20;99.90
21306;DHT22;10812;51.838;5.838;2023-02-05T07:58:44;6.20;99.90
21306;DHT22;10812;51.838;5.838;2023-02-05T08:01:12;6.30;99.90
21306;DHT22;10812;51.838;5.838;2023-02-05T08:03:41;6.30;99.90
21306;DHT22;10812;51.838;5.838;2023-02-05T08:06:12;6.30;99.90
21306;DHT22;10812;51.838;5.838;2023-02-05T08:08:41;6.30;99.90
21306;DHT22;10812;51.838;5.838;2023-02-05T08:11:13;6.40;99.90
21306;DHT22;10812;51.838;5.838;2023-02-05T08:13:41;6.40;99.90
21306;DHT22;10812;51.838;5.838;2023-02-05T08:16:12;6.40;99.90
21306;DHT22;10812;51.838;5.838;2023-02-05T08:18:41;6.40;99.90
21306;DHT22;10812;51.838;5.838;2023-02-05T08:21:10;6.40;99.90
21306;DHT22;10812;51.838;5.838;2023-02-05T08:23:38;6.40;99.90
21306;DHT22;10812;51.838;5.838;2023-02-05T08:26:06;6.40;99.90
21306;DHT22;10812;51.838;5.838;2023-02-05T08:28:34;6.40;99.90
21306;DHT22;10812;51.838;5.838;2023-02-05T08:31:08;6.40;99.90
21306;DHT22;10812;51.838;5.838;2023-02-05T08:33:38;6.40;99.90
21306;DHT22;10812;51.838;5.838;2023-02-05T08:36:08;6.40;99.90
21306;DHT22;10812;51.838;5.838;2023-02-05T08:38:36;6.40;99.90
21306;DHT22;10812;51.838;5.838;2023-02-05T08:41:06;6.40;99.90
21306;DHT22;10812;51.838;5.838;2023-02-05T08:43:39;6.40;99.90
21306;DHT22;10812;51.838;5.838;2023-02-05T08:46:09;6.40;99.90
21306;DHT22;10812;51.838;5.838;2023-02-05T08:48:39;6.40;99.90
21306;DHT22;10812;51.838;5.838;2023-02-05T08:51:08;6.40;99.90
21306;DHT22;10812;51.838;5.838;2023-02-05T08:53:37;6.40;99.90
21306;DHT22;10812;51.838;5.838;2023-02-05T08:56:06;6.40;99.90
21306;DHT22;10812;51.838;5.838;2023-02-05T08:58:37;6.40;99.90
21306;DHT22;10812;51.838;5.838;2023-02-05T09:01:07;6.40;99.90
21306;DHT22;10812;51.838;5.838;2023-02-05T09:03:36;6.40;99.90
21306;DHT22;10812;51.838;5.838;2023-02-05T09:06:07;6.50;99.90
21306;DHT22;10812;51.838;5.838;2023-02-05T09:08:36;6.50;99.90
21306;DHT22;10812;51.838;5.838;2023-02-05T09:11:04;6.60;99.90
21306;DHT22;10812;51.838;5.838;2023-02-05T09:13:33;6.60;99.90
21306;DHT22;10812;51.838;5.838;2023-02-05T09:16:01;6.60;99.90
21306;DHT22;10812;51.838;5.838;2023-02-05T09:18:29;6.60;99.90
21306;DHT22;10812;51.838;5.838;2023-02-05T09:20:57;6.70;99.90
21306;DHT22;10812;51.838;5.838;2023-02-05T09:23:27;6.70;99.90
21306;DHT22;10812;51.838;5.838;2023-02-05T09:25:57;6.70;99.90
21306;DHT22;10812;51.838;5.838;2023-02-05T09:28:25;6.70;99.90
21306;DHT22;10812;51.838;5.838;2023-02-05T09:42:27;6.60;99.90
21306;DHT22;10812;51.838;5.838;2023-02-05T09:45:15;6.80;99.90
21306;DHT22;10812;51.838;5.838;2023-02-05T09:47:50;6.90;99.90
21306;DHT22;10812;51.838;5.838;2023-02-05T09:50:26;7.00;99.90
21306;DHT22;10812;51.838;5.838;2023-02-05T09:52:59;7.10;99.90
21306;DHT22;10812;51.838;5.838;2023-02-05T09:55:30;7.20;99.90
21306;DHT22;10812;51.838;5.838;2023-02-05T09:58:04;7.10;99.90
21306;DHT22;10812;51.838;5.838;2023-02-05T10:00:41;7.20;99.90
21306;DHT22;10812;51.838;5.838;2023-02-05T10:03:20;7.30;99.90
21306;DHT22;10812;51.838;5.838;2023-02-05T10:06:03;7.20;99.90
21306;DHT22;10812;51.838;5.838;2023-02-05T10:08:40;7.20;99.90
21306;DHT22;10812;51.838;5.838;2023-02-05T10:11:17;7.30;99.90
21306;DHT22;10812;51.838;5.838;2023-02-05T10:13:59;7.20;99.90
21306;DHT22;10812;51.838;5.838;2023-02-05T10:16:39;7.30;99.90
21306;DHT22;10812;51.838;5.838;2023-02-05T10:19:20;7.20;99.90
21306;DHT22;10812;51.838;5.838;2023-02-05T10:22:07;7.30;99.90
21306;DHT22;10812;51.838;5.838;2023-02-05T10:25:03;7.30;99.90
21306;DHT22;10812;51.838;5.838;2023-02-05T10:27:38;7.30;99.90
21306;DHT22;10812;51.838;5.838;2023-02-05T10:30:16;7.30;99.90
21306;DHT22;10812;51.838;5.838;2023-02-05T10:32:55;7.30;99.90
21306;DHT22;10812;51.838;5.838;2023-02-05T10:35:28;7.40;99.90
21306;DHT22;10812;51.838;5.838;2023-02-05T10:38:00;7.40;99.90
21306;DHT22;10812;51.838;5.838;2023-02-05T10:40:37;7.40;99.90
21306;DHT22;10812;51.838;5.838;2023-02-05T10:43:22;7.50;99.90
21306;DHT22;10812;51.838;5.838;2023-02-05T10:45:54;7.50;99.90
21306;DHT22;10812;51.838;5.838;2023-02-05T10:48:34;7.60;99.90
21306;DHT22;10812;51.838;5.838;2023-02-05T10:51:05;7.60;99.90
21306;DHT22;10812;51.838;5.838;2023-02-05T10:53:35;7.70;99.90
21306;DHT22;10812;51.838;5.838;2023-02-05T10:56:04;7.80;99.90
21306;DHT22;10812;51.838;5.838;2023-02-05T10:58:38;7.80;99.90
21306;DHT22;10812;51.838;5.838;2023-02-05T11:01:13;7.90;99.90
21306;DHT22;10812;51.838;5.838;2023-02-05T11:03:51;7.80;99.90
21306;DHT22;10812;51.838;5.838;2023-02-05T11:06:21;7.80;99.90
21306;DHT22;10812;51.838;5.838;2023-02-05T11:08:51;7.70;99.90
21306;DHT22;10812;51.838;5.838;2023-02-05T11:11:21;7.70;99.90
21306;DHT22;10812;51.838;5.838;2023-02-05T11:13:53;7.80;99.90
21306;DHT22;10812;51.838;5.838;2023-02-05T11:16:26;7.80;99.90
21306;DHT22;10812;51.838;5.838;2023-02-05T11:19:01;7.80;99.90
21306;DHT22;10812;51.838;5.838;2023-02-05T11:21:49;7.80;99.90
21306;DHT22;10812;51.838;5.838;2023-02-05T11:24:29;7.80;99.90
21306;DHT22;10812;51.838;5.838;2023-02-05T11:27:26;7.80;99.90
21306;DHT22;10812;51.838;5.838;2023-02-05T11:29:55;7.80;99.90
21306;DHT22;10812;51.838;5.838;2023-02-05T11:32:34;7.80;99.90
21306;DHT22;10812;51.838;5.838;2023-02-05T11:35:16;7.90;99.90
21306;DHT22;10812;51.838;5.838;2023-02-05T11:37:46;7.90;99.90
21306;DHT22;10812;51.838;5.838;2023-02-05T11:40:21;8.00;99.90
21306;DHT22;10812;51.838;5.838;2023-02-05T11:43:03;8.10;99.90
21306;DHT22;10812;51.838;5.838;2023-02-05T11:45:33;8.10;99.90
21306;DHT22;10812;51.838;5.838;2023-02-05T11:48:06;8.10;99.90
21306;DHT22;10812;51.838;5.838;2023-02-05T11:50:43;8.10;99.90
21306;DHT22;10812;51.838;5.838;2023-02-05T11:53:13;8.10;99.90
21306;DHT22;10812;51.838;5.838;2023-02-05T11:55:43;8.20;99.90
21306;DHT22;10812;51.838;5.838;2023-02-05T11:58:20;8.30;99.90
21306;DHT22;10812;51.838;5.838;2023-02-05T12:01:03;8.20;99.90
21306;DHT22;10812;51.838;5.838;2023-02-05T12:03:33;8.20;99.90
21306;DHT22;10812;51.838;5.838;2023-02-05T12:06:08;8.20;99.90
21306;DHT22;10812;51.838;5.838;2023-02-05T12:08:42;8.30;99.90
21306;DHT22;10812;51.838;5.838;2023-02-05T12:11:45;8.30;99.90
21306;DHT22;10812;51.838;5.838;2023-02-05T12:14:37;8.20;99.90
21306;DHT22;10812;51.838;5.838;2023-02-05T12:17:23;8.30;99.90
21306;DHT22;10812;51.838;5.838;2023-02-05T12:20:02;8.20;99.90
21306;DHT22;10812;51.838;5.838;2023-02-05T12:22:49;8.00;99.90
21306;DHT22;10812;51.838;5.838;2023-02-05T12:25:23;8.00;99.90
21306;DHT22;10812;51.838;5.838;2023-02-05T12:28:03;8.10;99.90
21306;DHT22;10812;51.838;5.838;2023-02-05T12:30:49;8.10;99.90
21306;DHT22;10812;51.838;5.838;2023-02-05T12:33:43;8.20;99.90
21306;DHT22;10812;51.838;5.838;2023-02-05T12:36:27;8.30;99.90
21306;DHT22;10812;51.838;5.838;2023-02-05T12:39:13;8.30;99.90
21306;DHT22;10812;51.838;5.838;2023-02-05T12:41:49;8.20;99.90
21306;DHT22;10812;51.838;5.838;2023-02-05T12:44:35;8.20;99.90
21306;DHT22;10812;51.838;5.838;2023-02-05T12:47:16;8.20;99.90
21306;DHT22;10812;51.838;5.838;2023-02-05T12:50:02;8.40;99.90
21306;DHT22;10812;51.838;5.838;2023-02-05T12:52:52;8.40;99.90
21306;DHT22;10812;51.838;5.838;2023-02-05T12:55:35;8.50;99.90
21306;DHT22;10812;51.838;5.838;2023-02-05T12:58:09;8.60;99.90
21306;DHT22;10812;51.838;5.838;2023-02-05T13:00:42;8.60;99.90
21306;DHT22;10812;51.838;5.838;2023-02-05T13:03:19;8.60;99.90
21306;DHT22;10812;51.838;5.838;2023-02-05T13:05:52;8.60;99.90
21306;DHT22;10812;51.838;5.838;2023-02-05T13:08:32;8.60;99.90
21306;DHT22;10812;51.838;5.838;2023-02-05T13:11:07;8.60;99.90
21306;DHT22;10812;51.838;5.838;2023-02-05T13:13:43;8.60;99.90
21306;DHT22;10812;51.838;5.838;2023-02-05T13:16:17;8.60;99.90
21306;DHT22;10812;51.838;5.838;2023-02-05T13:18:48;8.60;99.90
21306;DHT22;10812;51.838;5.838;2023-02-05T13:21:20;8.50;99.90
21306;DHT22;10812;51.838;5.838;2023-02-05T13:24:24;8.50;99.90
21306;DHT22;10812;51.838;5.838;2023-02-05T13:27:19;8.60;99.90
21306;DHT22;10812;51.838;5.838;2023-02-05T13:30:10;8.40;99.90
21306;DHT22;10812;51.838;5.838;2023-02-05T13:32:41;8.30;99.90
21306;DHT22;10812;51.838;5.838;2023-02-05T13:35:11;8.30;99.90
21306;DHT22;10812;51.838;5.838;2023-02-05T13:37:57;8.20;99.90
21306;DHT22;10812;51.838;5.838;2023-02-05T13:46:39;8.40;99.90
21306;DHT22;10812;51.838;5.838;2023-02-05T13:52:56;8.60;99.90
21306;DHT22;10812;51.838;5.838;2023-02-05T13:55:54;8.60;99.90
21306;DHT22;10812;51.838;5.838;2023-02-05T13:58:28;8.60;99.90
21306;DHT22;10812;51.838;5.838;2023-02-05T14:01:01;8.60;99.90
21306;DHT22;10812;51.838;5.838;2023-02-05T14:03:36;8.60;99.90
21306;DHT22;10812;51.838;5.838;2023-02-05T14:06:13;8.60;99.90
21306;DHT22;10812;51.838;5.838;2023-02-05T14:08:42;8.60;99.90
21306;DHT22;10812;51.838;5.838;2023-02-05T14:11:12;8.50;99.90
21306;DHT22;10812;51.838;5.838;2023-02-05T14:13:40;8.50;99.90
21306;DHT22;10812;51.838;5.838;2023-02-05T14:16:36;8.50;99.90
21306;DHT22;10812;51.838;5.838;2023-02-05T14:19:13;8.50;99.90
21306;DHT22;10812;51.838;5.838;2023-02-05T14:22:00;8.50;99.90
21306;DHT22;10812;51.838;5.838;2023-02-05T14:24:48;8.60;99.90
21306;DHT22;10812;51.838;5.838;2023-02-05T14:27:48;8.70;99.90
21306;DHT22;10812;51.838;5.838;2023-02-05T14:30:50;8.70;99.90
21306;DHT22;10812;51.838;5.838;2023-02-05T14:33:40;8.70;99.90
21306;DHT22;10812;51.838;5.838;2023-02-05T14:36:31;8.70;99.90
21306;DHT22;10812;51.838;5.838;2023-02-05T14:39:03;8.70;99.90
21306;DHT22;10812;51.838;5.838;2023-02-05T14:41:45;8.80;99.90
21306;DHT22;10812;51.838;5.838;2023-02-05T14:44:24;8.90;99.90
21306;DHT22;10812;51.838;5.838;2023-02-05T14:47:05;8.80;99.90
21306;DHT22;10812;51.838;5.838;2023-02-05T14:49:39;8.80;99.90
21306;DHT22;10812;51.838;5.838;2023-02-05T14:52:25;8.80;99.90
21306;DHT22;10812;51.838;5.838;2023-02-05T14:54:56;8.70;99.90
21306;DHT22;10812;51.838;5.838;2023-02-05T14:57:32;8.70;99.90
21306;DHT22;10812;51.838;5.838;2023-02-05T15:00:22;8.70;99.90
21306;DHT22;10812;51.838;5.838;2023-02-05T15:05:57;8.60;99.90
21306;DHT22;10812;51.838;5.838;2023-02-05T15:08:43;8.50;99.90
21306;DHT22;10812;51.838;5.838;2023-02-05T15:11:21;8.60;99.90
21306;DHT22;10812;51.838;5.838;2023-02-05T15:20:24;8.50;99.90
21306;DHT22;10812;51.838;5.838;2023-02-05T15:22:57;8.40;99.90
21306;DHT22;10812;51.838;5.838;2023-02-05T15:25:32;8.50;99.90
21306;DHT22;10812;51.838;5.838;2023-02-05T15:28:06;8.50;99.90
21306;DHT22;10812;51.838;5.838;2023-02-05T15:30:46;8.40;99.90
21306;DHT22;10812;51.838;5.838;2023-02-05T15:33:27;8.40;99.90
21306;DHT22;10812;51.838;5.838;2023-02-05T15:35:58;8.40;99.90
21306;DHT22;10812;51.838;5.838;2023-02-05T15:38:31;8.30;99.90
21306;DHT22;10812;51.838;5.838;2023-02-05T15:41:05;8.30;99.90
21306;DHT22;10812;51.838;5.838;2023-02-05T15:43:33;8.20;99.90
21306;DHT22;10812;51.838;5.838;2023-02-05T15:46:04;8.20;99.90
21306;DHT22;10812;51.838;5.838;2023-02-05T15:48:35;8.10;99.90
21306;DHT22;10812;51.838;5.838;2023-02-05T15:51:16;8.10;99.90
21306;DHT22;10812;51.838;5.838;2023-02-05T15:53:47;8.10;99.90
21306;DHT22;10812;51.838;5.838;2023-02-05T15:56:23;8.00;99.90
21306;DHT22;10812;51.838;5.838;2023-02-05T15:58:54;8.00;99.90
21306;DHT22;10812;51.838;5.838;2023-02-05T16:01:25;7.90;99.90
21306;DHT22;10812;51.838;5.838;2023-02-05T16:03:55;7.90;99.90
21306;DHT22;10812;51.838;5.838;2023-02-05T16:06:26;7.80;99.90
21306;DHT22;10812;51.838;5.838;2023-02-05T16:08:54;7.80;99.90
21306;DHT22;10812;51.838;5.838;2023-02-05T16:11:30;7.80;99.90
21306;DHT22;10812;51.838;5.838;2023-02-05T16:14:03;7.80;99.90
21306;DHT22;10812;51.838;5.838;2023-02-05T16:16:33;7.70;99.90
21306;DHT22;10812;51.838;5.838;2023-02-05T16:19:04;7.70;99.90
21306;DHT22;10812;51.838;5.838;2023-02-05T16:21:39;7.70;99.90
21306;DHT22;10812;51.838;5.838;2023-02-05T16:39:25;7.40;99.90
21306;DHT22;10812;51.838;5.838;2023-02-05T16:42:02;7.30;99.90
21306;DHT22;10812;51.838;5.838;2023-02-05T16:44:34;7.20;99.90
21306;DHT22;10812;51.838;5.838;2023-02-05T16:47:13;7.10;99.90
21306;DHT22;10812;51.838;5.838;2023-02-05T16:49:43;7.10;99.90
21306;DHT22;10812;51.838;5.838;2023-02-05T16:52:29;7.10;99.90
21306;DHT22;10812;51.838;5.838;2023-02-05T16:55:04;7.10;99.90
21306;DHT22;10812;51.838;5.838;2023-02-05T16:57:35;7.10;99.90
21306;DHT22;10812;51.838;5.838;2023-02-05T17:00:05;7.10;99.90
21306;DHT22;10812;51.838;5.838;2023-02-05T17:02:36;7.00;99.90
21306;DHT22;10812;51.838;5.838;2023-02-05T17:05:08;7.00;99.90
21306;DHT22;10812;51.838;5.838;2023-02-05T17:07:53;7.00;99.90
21306;DHT22;10812;51.838;5.838;2023-02-05T17:10:23;6.90;99.90
21306;DHT22;10812;51.838;5.838;2023-02-05T17:12:55;6.80;99.90
21306;DHT22;10812;51.838;5.838;2023-02-05T17:15:31;6.70;99.90
21306;DHT22;10812;51.838;5.838;2023-02-05T17:18:00;6.60;99.90
21306;DHT22;10812;51.838;5.838;2023-02-05T17:20:43;6.60;99.90
21306;DHT22;10812;51.838;5.838;2023-02-05T17:23:13;6.60;99.90
21306;DHT22;10812;51.838;5.838;2023-02-05T17:25:49;6.60;99.90
21306;DHT22;10812;51.838;5.838;2023-02-05T17:28:20;6.50;99.90
21306;DHT22;10812;51.838;5.838;2023-02-05T17:30:52;6.40;99.90
21306;DHT22;10812;51.838;5.838;2023-02-05T17:33:22;6.40;99.90
21306;DHT22;10812;51.838;5.838;2023-02-05T17:35:51;6.40;99.90
21306;DHT22;10812;51.838;5.838;2023-02-05T17:38:19;6.30;99.90